Time;durP1;ratioP1;P1;durP2;ratioP2;P2;SDS_P1;SDS_P2;PMS_P1;PMS_P2;Temp;Humidity;BMP_temperature;BMP_pressure;BME280_temperature;BME280_humidity;BME280_pressure;Samples;Min_cycle;Max_cycle;Signal;HPM_P1;HPM_P2
2023/05/18 00:02:04;;;;;;;8.70;0.85;;;8.30;99.90;;;;;;4965123;28;20436;-64
2023/05/18 00:04:34;;;;;;;10.02;0.95;;;8.40;99.90;;;;;;4948063;28;21092;-64
2023/05/18 00:07:04;;;;;;;12.98;0.90;;;8.40;99.90;;;;;;4994986;28;20038;-65
2023/05/18 00:09:32;;;;;;;8.95;0.65;;;8.40;99.90;;;;;;4964402;28;20042;-65
2023/05/18 00:11:59;;;;;;;5.75;0.70;;;8.40;99.90;;;;;;4996816;28;20047;-65
2023/05/18 00:14:25;;;;;;;8.63;0.80;;;8.40;99.90;;;;;;4965410;28;20038;-65
2023/05/18 00:16:54;;;;;;;6.53;0.90;;;8.40;99.90;;;;;;4966760;28;20038;-64
2023/05/18 00:19:21;;;;;;;8.88;0.70;;;8.50;99.90;;;;;;4963603;28;20050;-65
2023/05/18 00:21:47;;;;;;;11.68;1.00;;;8.50;99.90;;;;;;4949417;28;20043;-64
2023/05/18 00:24:17;;;;;;;8.38;1.00;;;8.50;99.90;;;;;;4963799;28;20046;-65
2023/05/18 00:26:44;;;;;;;10.30;0.65;;;8.50;99.90;;;;;;4975015;28;20497;-66
2023/05/18 00:29:12;;;;;;;6.75;0.75;;;8.50;99.90;;;;;;4995235;28;20046;-65
2023/05/18 00:31:41;;;;;;;6.22;0.73;;;8.50;99.90;;;;;;4967868;28;20569;-64
2023/05/18 00:34:13;;;;;;;8.90;0.93;;;8.50;99.90;;;;;;4965127;28;20061;-64
2023/05/18 00:36:39;;;;;;;8.27;0.70;;;8.50;99.90;;;;;;4997547;28;20051;-65
2023/05/18 00:39:06;;;;;;;10.32;1.30;;;8.50;99.90;;;;;;4963225;28;20572;-64
2023/05/18 00:41:32;;;;;;;5.80;0.63;;;8.50;99.90;;;;;;4995718;28;20146;-65
2023/05/18 00:43:58;;;;;;;11.00;1.15;;;8.50;99.90;;;;;;4965696;28;20041;-64
2023/05/18 00:46:25;;;;;;;6.18;0.90;;;8.50;99.90;;;;;;4982836;28;20465;-64
2023/05/18 00:48:52;;;;;;;11.52;1.30;;;8.50;99.90;;;;;;4964021;28;20501;-65
2023/05/18 00:51:20;;;;;;;10.23;1.00;;;8.50;99.90;;;;;;4965796;28;20051;-66
2023/05/18 00:53:46;;;;;;;7.10;0.88;;;8.50;99.90;;;;;;4967983;28;20065;-65
2023/05/18 00:56:13;;;;;;;7.75;0.80;;;8.50;99.90;;;;;;4969835;28;20042;-67
2023/05/18 00:58:40;;;;;;;9.10;1.00;;;8.50;99.90;;;;;;4968299;28;20051;-64
2023/05/18 01:01:08;;;;;;;9.82;0.93;;;8.50;99.90;;;;;;4947375;28;20061;-65
2023/05/18 01:03:38;;;;;;;8.07;0.90;;;8.50;99.90;;;;;;4984550;28;20042;-65
2023/05/18 01:06:08;;;;;;;6.22;0.90;;;8.50;99.90;;;;;;4966558;28;20150;-66
2023/05/18 01:08:35;;;;;;;8.70;0.73;;;8.50;99.90;;;;;;4966236;28;20109;-65
2023/05/18 01:11:22;;;;;;;6.68;0.60;;;8.50;99.90;;;;;;4965750;28;20077;-66
2023/05/18 01:13:51;;;;;;;6.25;0.80;;;8.50;99.90;;;;;;4998486;28;20568;-65
2023/05/18 01:16:25;;;;;;;11.25;1.08;;;8.50;99.90;;;;;;4969192;28;20366;-65
2023/05/18 01:19:01;;;;;;;10.35;1.08;;;8.50;99.90;;;;;;4999583;28;20528;-64
2023/05/18 01:21:33;;;;;;;6.47;0.60;;;8.50;99.90;;;;;;4967142;28;20287;-64
2023/05/18 01:24:17;;;;;;;5.32;0.60;;;8.50;99.90;;;;;;4999680;28;20517;-65
2023/05/18 01:26:47;;;;;;;10.70;0.93;;;8.50;99.90;;;;;;4984274;28;20305;-65
2023/05/18 01:29:14;;;;;;;9.70;1.15;;;8.50;99.90;;;;;;4999700;28;20082;-65
2023/05/18 01:31:40;;;;;;;5.38;0.50;;;8.50;99.90;;;;;;4981912;28;20039;-63
2023/05/18 01:34:06;;;;;;;7.95;1.13;;;8.50;99.90;;;;;;4967827;28;20411;-64
2023/05/18 01:36:32;;;;;;;7.05;0.80;;;8.50;99.90;;;;;;4988619;28;20093;-64
2023/05/18 01:39:00;;;;;;;6.07;0.77;;;8.50;99.90;;;;;;4968077;28;20157;-65
2023/05/18 01:41:28;;;;;;;8.90;1.25;;;8.50;99.90;;;;;;4999092;28;20239;-64
2023/05/18 01:44:04;;;;;;;7.10;0.88;;;8.50;99.90;;;;;;4982943;28;20082;-64
2023/05/18 01:46:42;;;;;;;9.85;1.25;;;8.50;99.90;;;;;;4966071;28;20044;-65
2023/05/18 01:49:19;;;;;;;9.88;0.90;;;8.40;99.90;;;;;;4998272;28;20030;-65
2023/05/18 01:51:47;;;;;;;6.63;0.70;;;8.40;99.90;;;;;;4965937;28;20292;-64
2023/05/18 01:54:17;;;;;;;8.02;0.60;;;8.40;99.90;;;;;;4983223;28;20653;-66
2023/05/18 01:56:45;;;;;;;8.85;0.82;;;8.40;99.90;;;;;;4998687;28;20466;-64
2023/05/18 01:59:11;;;;;;;8.60;1.33;;;8.40;99.90;;;;;;4999399;28;20497;-65
2023/05/18 02:01:37;;;;;;;9.00;0.80;;;8.40;99.90;;;;;;4999554;28;20070;-64
2023/05/18 02:04:10;;;;;;;6.38;1.00;;;8.40;99.90;;;;;;4952343;28;20134;-65
2023/05/18 02:06:36;;;;;;;7.00;0.60;;;8.40;99.90;;;;;;4966922;28;20113;-65
2023/05/18 02:09:03;;;;;;;8.45;0.90;;;8.40;99.90;;;;;;4966747;28;20035;-67
2023/05/18 02:11:29;;;;;;;6.70;0.95;;;8.40;99.90;;;;;;4997405;28;20046;-65
2023/05/18 02:13:55;;;;;;;10.95;1.35;;;8.40;99.90;;;;;;4966124;28;20101;-64
2023/05/18 02:16:21;;;;;;;6.15;0.60;;;8.40;99.90;;;;;;4967346;28;20624;-64
2023/05/18 02:18:46;;;;;;;10.38;1.05;;;8.40;99.90;;;;;;4997289;28;20524;-65
2023/05/18 02:21:12;;;;;;;12.48;0.90;;;8.40;99.90;;;;;;4965792;28;20053;-64
2023/05/18 02:23:40;;;;;;;9.73;1.00;;;8.50;99.90;;;;;;4952141;28;20757;-65
2023/05/18 02:26:06;;;;;;;9.43;1.00;;;8.40;99.90;;;;;;4985981;28;20145;-64
2023/05/18 02:28:31;;;;;;;8.63;0.80;;;8.40;99.90;;;;;;4965992;28;20315;-65
2023/05/18 02:31:10;;;;;;;9.63;0.82;;;8.40;99.90;;;;;;4962392;28;20504;-64
2023/05/18 02:33:39;;;;;;;9.68;0.80;;;8.40;99.90;;;;;;4967382;28;20585;-65
2023/05/18 02:36:24;;;;;;;7.47;1.00;;;8.40;99.90;;;;;;4982386;28;20046;-65
2023/05/18 02:38:50;;;;;;;8.20;0.90;;;8.40;99.90;;;;;;4965844;28;20363;-64
2023/05/18 02:41:15;;;;;;;8.40;1.00;;;8.40;99.90;;;;;;4961118;28;20042;-65
2023/05/18 02:43:41;;;;;;;11.57;1.15;;;8.40;99.90;;;;;;4981622;28;20074;-65
2023/05/18 02:46:07;;;;;;;7.25;0.68;;;8.40;99.90;;;;;;4997725;28;20050;-64
2023/05/18 02:48:32;;;;;;;8.07;0.88;;;8.40;99.90;;;;;;4964764;28;20054;-64
2023/05/18 02:50:58;;;;;;;7.63;1.00;;;8.40;99.90;;;;;;4999239;28;20041;-65
2023/05/18 02:53:24;;;;;;;7.40;0.82;;;8.30;99.90;;;;;;4999038;28;20057;-65
2023/05/18 02:55:55;;;;;;;6.13;0.75;;;8.40;99.90;;;;;;4950484;28;20042;-65
2023/05/18 02:58:24;;;;;;;10.65;0.90;;;8.30;99.90;;;;;;4981860;28;20576;-64
2023/05/18 03:00:51;;;;;;;8.13;0.90;;;8.30;99.90;;;;;;4998944;28;20049;-65
2023/05/18 03:03:17;;;;;;;9.63;0.95;;;8.30;99.90;;;;;;4968790;28;20634;-64
2023/05/18 03:05:43;;;;;;;8.98;0.85;;;8.30;99.90;;;;;;4966497;28;20541;-64
2023/05/18 03:08:09;;;;;;;10.00;0.70;;;8.30;99.90;;;;;;4965371;28;20060;-65
2023/05/18 03:10:35;;;;;;;6.63;0.80;;;8.30;99.90;;;;;;4966301;28;20073;-64
2023/05/18 03:13:02;;;;;;;6.57;0.75;;;8.30;99.90;;;;;;4950465;28;20571;-65
2023/05/18 03:15:30;;;;;;;6.97;0.75;;;8.30;99.90;;;;;;4997277;28;20540;-64
2023/05/18 03:17:58;;;;;;;7.63;0.73;;;8.20;99.90;;;;;;4950258;28;20385;-65
2023/05/18 03:20:25;;;;;;;8.45;1.30;;;8.20;99.90;;;;;;4965996;28;20046;-65
2023/05/18 03:22:51;;;;;;;7.90;0.80;;;8.20;99.90;;;;;;4966963;28;20046;-65
2023/05/18 03:25:17;;;;;;;8.43;0.80;;;8.20;99.90;;;;;;4964926;28;20310;-65
2023/05/18 03:27:42;;;;;;;5.85;0.70;;;8.20;99.90;;;;;;4964247;28;20527;-64
2023/05/18 03:30:08;;;;;;;10.70;1.08;;;8.20;99.90;;;;;;4965122;28;20038;-64
2023/05/18 03:32:35;;;;;;;7.78;0.75;;;8.20;99.90;;;;;;4965442;28;20046;-64
2023/05/18 03:35:03;;;;;;;5.72;1.30;;;8.20;99.90;;;;;;4964451;28;20058;-68
2023/05/18 03:37:29;;;;;;;10.32;1.02;;;8.20;99.90;;;;;;4997183;28;20390;-66
2023/05/18 03:39:58;;;;;;;9.68;0.70;;;8.20;99.90;;;;;;4964713;28;20469;-64
2023/05/18 03:42:24;;;;;;;6.88;0.65;;;8.20;99.90;;;;;;4965625;28;20120;-64
2023/05/18 03:44:50;;;;;;;9.85;1.00;;;8.30;99.90;;;;;;4980554;28;20190;-67
2023/05/18 03:47:17;;;;;;;6.60;0.80;;;8.30;99.90;;;;;;4981448;28;20064;-65
2023/05/18 03:49:43;;;;;;;7.72;0.65;;;8.30;99.90;;;;;;4949642;28;20501;-67
2023/05/18 03:52:09;;;;;;;7.70;0.88;;;8.30;99.90;;;;;;4996554;28;20115;-65
2023/05/18 03:54:35;;;;;;;7.25;0.52;;;8.30;99.90;;;;;;4967051;28;20093;-65
2023/05/18 03:57:00;;;;;;;10.05;0.90;;;8.30;99.90;;;;;;4964851;28;20062;-65
2023/05/18 03:59:26;;;;;;;10.05;1.08;;;8.40;99.90;;;;;;4947855;28;20691;-64
2023/05/18 04:01:52;;;;;;;8.38;0.70;;;8.40;99.90;;;;;;4998239;28;20081;-64
2023/05/18 04:04:22;;;;;;;8.70;1.05;;;8.40;99.90;;;;;;4949386;28;20053;-63
2023/05/18 04:06:50;;;;;;;7.65;0.80;;;8.40;99.90;;;;;;4966624;28;20050;-62
2023/05/18 04:09:18;;;;;;;6.20;0.90;;;8.40;99.90;;;;;;4999767;28;20050;-63
2023/05/18 04:11:44;;;;;;;4.85;0.52;;;8.40;99.90;;;;;;4950431;28;20054;-63
2023/05/18 04:14:11;;;;;;;11.73;1.00;;;8.50;99.90;;;;;;4963748;28;20046;-63
2023/05/18 04:16:36;;;;;;;7.38;0.98;;;8.50;99.90;;;;;;4964906;28;20042;-63
2023/05/18 04:19:05;;;;;;;7.30;0.85;;;8.50;99.90;;;;;;4963107;28;20050;-64
2023/05/18 04:21:34;;;;;;;8.60;0.90;;;8.50;99.90;;;;;;4962701;28;20161;-63
2023/05/18 04:24:05;;;;;;;7.68;0.70;;;8.60;99.90;;;;;;4959451;28;20069;-64
2023/05/18 04:26:37;;;;;;;7.90;0.60;;;8.60;99.90;;;;;;4963494;28;20389;-63
2023/05/18 04:29:03;;;;;;;8.77;1.20;;;8.60;99.90;;;;;;4949757;28;20074;-65
2023/05/18 04:31:28;;;;;;;5.07;0.82;;;8.60;99.90;;;;;;4956225;28;20501;-65
2023/05/18 04:33:56;;;;;;;9.18;0.95;;;8.70;99.90;;;;;;4961964;28;20540;-65
2023/05/18 04:36:24;;;;;;;5.43;0.70;;;8.80;99.90;;;;;;4991992;28;20058;-65
2023/05/18 04:38:53;;;;;;;7.22;1.02;;;8.80;99.90;;;;;;4942215;28;20125;-65
2023/05/18 04:41:21;;;;;;;9.40;1.05;;;8.90;99.90;;;;;;4953548;28;20053;-65
2023/05/18 04:43:49;;;;;;;8.23;1.02;;;9.00;99.90;;;;;;4942357;28;20397;-65
2023/05/18 04:46:15;;;;;;;6.28;0.80;;;9.10;99.90;;;;;;4945241;28;20762;-65
2023/05/18 04:48:41;;;;;;;10.43;1.38;;;9.10;99.90;;;;;;4957101;28;20275;-66
2023/05/18 04:51:07;;;;;;;7.95;0.63;;;9.10;99.90;;;;;;4959584;28;20241;-65
2023/05/18 04:53:33;;;;;;;8.50;0.80;;;9.20;99.90;;;;;;4938515;28;20043;-65
2023/05/18 04:56:00;;;;;;;5.38;0.70;;;9.20;99.90;;;;;;4943843;28;20117;-64
2023/05/18 04:58:26;;;;;;;8.00;0.73;;;9.30;99.90;;;;;;4992466;28;20042;-64
2023/05/18 05:00:53;;;;;;;9.20;0.75;;;9.30;99.90;;;;;;4945159;28;20489;-66
2023/05/18 05:03:18;;;;;;;7.18;0.80;;;9.40;99.90;;;;;;4974613;28;20195;-64
2023/05/18 05:05:44;;;;;;;7.93;0.80;;;9.50;99.90;;;;;;4959805;28;20353;-65
2023/05/18 05:08:10;;;;;;;7.93;1.25;;;9.50;99.90;;;;;;4991881;28;20491;-65
2023/05/18 05:10:36;;;;;;;7.78;0.85;;;9.60;99.90;;;;;;4942695;28;20043;-65
2023/05/18 05:13:02;;;;;;;9.57;0.98;;;9.60;99.90;;;;;;4936700;28;20054;-64
2023/05/18 05:15:28;;;;;;;6.55;0.73;;;9.70;99.90;;;;;;4954358;28;20338;-65
2023/05/18 05:17:54;;;;;;;2.67;0.50;;;9.70;99.90;;;;;;4975381;28;20046;-66
2023/05/18 05:20:20;;;;;;;5.45;0.60;;;9.70;99.90;;;;;;4945112;28;20072;-64
2023/05/18 05:22:46;;;;;;;4.72;0.60;;;9.70;99.90;;;;;;4958107;28;20097;-64
2023/05/18 05:25:11;;;;;;;9.60;0.60;;;9.70;97.10;;;;;;4989729;28;20144;-66
2023/05/18 05:27:37;;;;;;;5.50;0.52;;;9.70;89.40;;;;;;4961360;28;20316;-65
2023/05/18 05:30:05;;;;;;;6.70;0.80;;;9.60;95.10;;;;;;4990152;28;20393;-64
2023/05/18 05:32:31;;;;;;;8.27;0.85;;;9.60;99.90;;;;;;4975659;28;20053;-65
2023/05/18 05:34:56;;;;;;;4.00;0.50;;;9.60;99.90;;;;;;4958816;28;20416;-65
2023/05/18 05:37:22;;;;;;;8.65;0.70;;;9.70;99.90;;;;;;4959675;28;20165;-66
2023/05/18 05:39:48;;;;;;;5.50;0.63;;;9.70;99.90;;;;;;4954468;28;20334;-65
2023/05/18 05:42:14;;;;;;;7.63;0.70;;;9.70;99.90;;;;;;4958630;28;20310;-65
2023/05/18 05:44:40;;;;;;;6.63;0.90;;;9.70;99.90;;;;;;4973408;28;20105;-65
2023/05/18 05:47:08;;;;;;;7.45;0.98;;;9.70;99.90;;;;;;4958092;28;20046;-65
2023/05/18 05:49:34;;;;;;;6.35;0.85;;;9.80;99.90;;;;;;4955835;28;20043;-66
2023/05/18 05:52:00;;;;;;;4.82;0.88;;;9.90;94.70;;;;;;4989756;28;20047;-66
2023/05/18 05:54:25;;;;;;;7.22;0.85;;;9.90;92.80;;;;;;4954295;28;20527;-66
2023/05/18 05:56:51;;;;;;;4.60;0.63;;;10.00;62.10;;;;;;4959622;28;20481;-65
2023/05/18 05:59:17;;;;;;;8.02;0.70;;;10.00;38.00;;;;;;4941827;28;20054;-65
2023/05/18 06:01:42;;;;;;;5.38;0.90;;;10.10;36.30;;;;;;4935224;28;20074;-65
2023/05/18 06:04:11;;;;;;;6.30;0.93;;;10.20;46.70;;;;;;4956911;28;20494;-65
2023/05/18 06:06:38;;;;;;;8.88;0.80;;;10.20;46.90;;;;;;4954723;28;20076;-65
2023/05/18 06:09:04;;;;;;;6.97;0.73;;;10.40;59.90;;;;;;4956103;28;20642;-65
2023/05/18 06:11:30;;;;;;;4.03;0.60;;;10.50;47.40;;;;;;4937703;28;20042;-65
2023/05/18 06:13:56;;;;;;;6.68;0.60;;;10.70;1.00;;;;;;4940376;28;20567;-65
2023/05/18 06:16:22;;;;;;;8.30;0.77;;;10.80;1.00;;;;;;4953574;28;20039;-65
2023/05/18 06:18:47;;;;;;;7.20;0.80;;;10.90;1.00;;;;;;4939499;28;20386;-65
2023/05/18 06:21:16;;;;;;;6.55;0.88;;;11.10;1.00;;;;;;4950356;28;20052;-65
2023/05/18 06:23:43;;;;;;;6.45;0.70;;;11.30;1.00;;;;;;4955111;28;20090;-65
2023/05/18 06:26:09;;;;;;;5.40;0.55;;;11.30;1.00;;;;;;4982671;28;20145;-66
2023/05/18 06:28:35;;;;;;;4.97;0.50;;;11.40;1.00;;;;;;4941911;28;20039;-65
2023/05/18 06:31:01;;;;;;;7.82;0.50;;;11.60;1.00;;;;;;4956069;28;20041;-66
2023/05/18 06:33:27;;;;;;;6.93;0.70;;;11.60;1.00;;;;;;4938989;28;20069;-65
2023/05/18 06:35:53;;;;;;;6.07;0.70;;;11.60;1.00;;;;;;4969283;28;20042;-65
2023/05/18 06:38:19;;;;;;;6.82;0.70;;;11.70;1.00;;;;;;4969321;28;20046;-65
2023/05/18 06:40:44;;;;;;;5.47;0.60;;;11.80;1.00;;;;;;4937367;28;20629;-65
2023/05/18 06:43:10;;;;;;;6.22;0.50;;;12.00;1.00;;;;;;4986344;28;20436;-66
2023/05/18 06:45:38;;;;;;;6.47;1.40;;;12.00;1.00;;;;;;4946425;28;20081;-64
2023/05/18 06:48:04;;;;;;;5.68;0.60;;;12.00;1.00;;;;;;4951145;28;20049;-65
2023/05/18 06:50:30;;;;;;;4.25;0.60;;;12.10;99.90;;;;;;4980080;28;20054;-65
2023/05/18 06:52:55;;;;;;;5.35;0.50;;;12.20;99.90;;;;;;4949341;28;20074;-65
2023/05/18 06:55:21;;;;;;;8.98;0.60;;;12.40;99.90;;;;;;5001291;28;20078;-64
2023/05/18 06:57:47;;;;;;;7.03;0.65;;;12.40;99.90;;;;;;4966314;28;20104;-64
2023/05/18 07:00:13;;;;;;;6.70;0.80;;;12.50;99.90;;;;;;4953803;28;20078;-66
2023/05/18 07:02:39;;;;;;;6.78;0.70;;;12.50;99.90;;;;;;4978902;28;20278;-64
2023/05/18 07:05:07;;;;;;;6.82;0.63;;;12.50;99.90;;;;;;4950489;28;20093;-64
2023/05/18 07:07:35;;;;;;;4.85;0.60;;;12.70;99.90;;;;;;4948742;28;20041;-64
2023/05/18 07:10:02;;;;;;;5.07;0.63;;;12.80;99.90;;;;;;4966590;28;20400;-63
2023/05/18 07:12:28;;;;;;;4.15;0.55;;;13.00;99.90;;;;;;4977613;28;20109;-64
2023/05/18 07:14:53;;;;;;;6.88;1.02;;;13.20;99.90;;;;;;4954614;28;20047;-65
2023/05/18 07:17:19;;;;;;;10.85;0.90;;;13.40;99.90;;;;;;4982845;28;20079;-64
2023/05/18 07:19:45;;;;;;;4.78;0.60;;;13.70;99.90;;;;;;4984434;28;20184;-65
2023/05/18 07:22:11;;;;;;;7.38;0.60;;;13.90;99.90;;;;;;4969500;28;20423;-64
2023/05/18 07:24:37;;;;;;;6.30;0.70;;;14.00;99.90;;;;;;4983760;28;20077;-64
2023/05/18 07:27:03;;;;;;;5.55;0.63;;;14.20;99.90;;;;;;4968802;28;20050;-65
2023/05/18 07:29:29;;;;;;;7.15;0.70;;;14.60;99.90;;;;;;4969469;28;20050;-64
2023/05/18 07:31:55;;;;;;;5.97;0.90;;;14.80;99.90;;;;;;4971405;28;20046;-65
2023/05/18 07:34:22;;;;;;;8.73;0.73;;;15.20;99.90;;;;;;4996716;28;20867;-65
2023/05/18 07:36:47;;;;;;;8.68;0.60;;;15.40;99.90;;;;;;4998252;28;20049;-67
2023/05/18 07:39:27;;;;;;;5.28;0.50;;;15.50;99.90;;;;;;4954446;28;20071;-68
2023/05/18 07:41:53;;;;;;;5.65;0.80;;;15.40;99.90;;;;;;4996683;28;20046;-64
2023/05/18 07:44:19;;;;;;;4.80;0.50;;;15.40;99.90;;;;;;4964934;28;20148;-66
2023/05/18 07:46:45;;;;;;;5.25;0.63;;;15.40;99.90;;;;;;4949468;28;20038;-65
2023/05/18 07:49:11;;;;;;;4.53;0.50;;;15.60;99.90;;;;;;4964435;28;20425;-65
2023/05/18 07:51:37;;;;;;;6.10;0.70;;;16.00;99.90;;;;;;4997733;28;20098;-65
2023/05/18 07:54:04;;;;;;;7.93;0.95;;;16.10;99.90;;;;;;4996314;28;20046;-65
2023/05/18 07:56:30;;;;;;;5.75;0.75;;;16.20;99.90;;;;;;4964839;28;20042;-65
2023/05/18 07:58:56;;;;;;;5.63;0.70;;;16.50;99.90;;;;;;4969598;28;20043;-65
2023/05/18 08:01:26;;;;;;;8.13;0.90;;;16.10;99.90;;;;;;4966344;28;20046;-66
2023/05/18 08:03:53;;;;;;;4.95;0.60;;;15.60;99.90;;;;;;4963484;28;20046;-67
2023/05/18 08:06:19;;;;;;;6.65;0.47;;;15.20;99.90;;;;;;4963570;28;20060;-65
2023/05/18 08:08:45;;;;;;;5.57;0.60;;;14.50;99.90;;;;;;4995176;28;20081;-64
2023/05/18 08:11:11;;;;;;;6.88;0.70;;;14.50;99.90;;;;;;4965485;28;20058;-66
2023/05/18 08:13:37;;;;;;;7.68;0.65;;;14.50;99.90;;;;;;4979368;28;20065;-65
2023/05/18 08:16:08;;;;;;;5.47;1.15;;;14.30;99.90;;;;;;4936654;28;20696;-66
2023/05/18 08:18:35;;;;;;;4.40;0.52;;;14.10;99.90;;;;;;4961296;28;20152;-65
2023/05/18 08:21:03;;;;;;;6.05;0.90;;;13.90;99.90;;;;;;4959071;28;20042;-67
2023/05/18 08:23:28;;;;;;;5.90;0.77;;;13.50;99.90;;;;;;4947841;28;20053;-66
2023/05/18 08:25:55;;;;;;;6.53;0.80;;;13.70;99.90;;;;;;4976239;28;20038;-65
2023/05/18 08:28:22;;;;;;;6.57;0.60;;;13.60;99.90;;;;;;4962105;28;20307;-65
2023/05/18 08:30:47;;;;;;;6.15;0.70;;;13.70;99.90;;;;;;4961849;28;20929;-65
2023/05/18 08:33:13;;;;;;;6.68;0.65;;;13.50;99.90;;;;;;4960802;28;20034;-66
2023/05/18 08:35:39;;;;;;;5.63;0.60;;;13.40;99.90;;;;;;4959911;28;20354;-64
2023/05/18 08:38:04;;;;;;;6.28;1.17;;;13.30;99.90;;;;;;4953423;28;20463;-65
2023/05/18 08:40:44;;;;;;;5.43;0.60;;;13.20;99.90;;;;;;4961518;28;20443;-65
2023/05/18 08:43:22;;;;;;;7.65;0.80;;;13.10;99.90;;;;;;4959779;28;20351;-65
2023/05/18 08:46:09;;;;;;;8.48;0.88;;;13.20;99.90;;;;;;4959908;28;20405;-66
2023/05/18 08:48:36;;;;;;;10.48;0.85;;;13.30;99.90;;;;;;4991743;28;20039;-66
2023/05/18 08:51:04;;;;;;;7.95;0.75;;;13.10;99.90;;;;;;4959956;28;20047;-66
2023/05/18 08:53:32;;;;;;;7.05;0.80;;;13.10;99.90;;;;;;4946116;28;20489;-66
2023/05/18 08:55:59;;;;;;;5.28;0.80;;;13.10;99.90;;;;;;4958900;28;20548;-65
2023/05/18 08:58:36;;;;;;;6.35;0.77;;;12.90;99.90;;;;;;4959578;28;20055;-66
2023/05/18 09:01:03;;;;;;;7.28;0.80;;;12.80;99.90;;;;;;4992045;28;20150;-67
2023/05/18 09:03:30;;;;;;;7.30;0.60;;;12.80;99.90;;;;;;4976969;28;20046;-65
2023/05/18 09:05:59;;;;;;;4.90;0.70;;;12.80;99.90;;;;;;4975045;28;20291;-65
2023/05/18 09:08:27;;;;;;;5.57;0.80;;;12.90;99.90;;;;;;4990074;28;20777;-67
2023/05/18 09:10:57;;;;;;;9.43;1.13;;;13.30;99.90;;;;;;4967333;28;20083;-65
2023/05/18 09:13:22;;;;;;;9.30;0.65;;;13.50;99.90;;;;;;4937779;28;20507;-66
2023/05/18 09:15:50;;;;;;;9.07;0.70;;;13.80;99.90;;;;;;4973470;28;20378;-65
2023/05/18 09:18:17;;;;;;;6.68;0.77;;;14.30;99.90;;;;;;4958384;28;20125;-65
2023/05/18 09:21:25;;;;;;;7.22;0.70;;;14.50;99.90;;;;;;4962048;28;20104;-66
2023/05/18 09:24:14;;;;;;;5.15;0.60;;;14.60;99.90;;;;;;4961354;28;20207;-66
2023/05/18 09:26:40;;;;;;;8.07;0.90;;;15.00;99.90;;;;;;4957124;28;20049;-66
2023/05/18 09:29:16;;;;;;;6.70;1.10;;;15.50;99.90;;;;;;4956812;28;20046;-65
2023/05/18 09:31:44;;;;;;;7.60;0.80;;;15.70;99.90;;;;;;4990635;28;20616;-66
2023/05/18 09:34:10;;;;;;;5.43;0.82;;;15.70;99.90;;;;;;4990021;28;20583;-66
2023/05/18 09:36:36;;;;;;;6.88;1.10;;;15.70;99.90;;;;;;4962131;28;20359;-66
2023/05/18 09:39:10;;;;;;;4.82;0.60;;;15.40;99.90;;;;;;4961534;28;20096;-65
2023/05/18 09:41:39;;;;;;;5.47;0.77;;;15.10;99.90;;;;;;4996342;28;20086;-66
2023/05/18 09:44:08;;;;;;;5.07;0.60;;;15.20;99.90;;;;;;4962687;28;20046;-66
2023/05/18 09:46:40;;;;;;;6.30;0.80;;;15.40;99.90;;;;;;4968399;28;20047;-65
2023/05/18 09:49:06;;;;;;;6.53;1.00;;;15.70;99.90;;;;;;5010775;28;20092;-65
2023/05/18 09:51:36;;;;;;;5.45;0.80;;;15.90;99.90;;;;;;4951643;28;20118;-66
2023/05/18 09:54:05;;;;;;;7.22;0.65;;;15.90;99.90;;;;;;4994713;28;20050;-67
2023/05/18 09:56:35;;;;;;;8.88;0.88;;;16.00;99.90;;;;;;5003025;28;20074;-66
2023/05/18 09:59:11;;;;;;;7.63;0.85;;;16.20;99.90;;;;;;5013766;28;20136;-66
2023/05/18 10:01:59;;;;;;;8.50;0.95;;;16.30;99.90;;;;;;5007788;28;20060;-64
2023/05/18 10:04:56;;;;;;;8.63;0.90;;;16.40;99.90;;;;;;4962933;28;20046;-65
2023/05/18 10:07:22;;;;;;;6.25;0.65;;;16.80;99.90;;;;;;4956656;28;20051;-65
2023/05/18 10:10:01;;;;;;;7.07;0.60;;;17.10;99.90;;;;;;4945414;28;20054;-64
2023/05/18 10:12:26;;;;;;;8.63;0.90;;;17.00;99.90;;;;;;5010127;28;20563;-64
2023/05/18 10:14:52;;;;;;;7.43;0.95;;;17.00;99.90;;;;;;4939056;28;20483;-65
2023/05/18 10:17:18;;;;;;;6.88;0.80;;;16.60;99.90;;;;;;4938818;28;20136;-66
2023/05/18 10:19:45;;;;;;;4.18;0.60;;;17.20;99.90;;;;;;4956802;28;20682;-66
2023/05/18 10:22:19;;;;;;;6.75;0.68;;;17.80;99.90;;;;;;4956472;28;20141;-66
2023/05/18 10:24:50;;;;;;;4.80;0.57;;;18.00;99.90;;;;;;4996765;28;20058;-66
2023/05/18 10:27:18;;;;;;;5.63;0.60;;;18.30;99.90;;;;;;5004782;28;20046;-66
2023/05/18 10:29:45;;;;;;;6.13;0.57;;;18.70;99.90;;;;;;5005580;28;20407;-66
2023/05/18 10:32:11;;;;;;;4.53;0.55;;;18.70;99.90;;;;;;4955998;28;20104;-67
2023/05/18 10:34:38;;;;;;;4.18;0.50;;;18.40;99.90;;;;;;4952100;28;20160;-65
2023/05/18 10:37:05;;;;;;;7.93;0.80;;;18.70;99.90;;;;;;4956338;28;20038;-66
2023/05/18 10:39:35;;;;;;;5.93;0.70;;;18.50;99.90;;;;;;4957730;28;20047;-67
2023/05/18 10:42:02;;;;;;;6.38;0.95;;;18.80;99.90;;;;;;4944549;28;20042;-68
2023/05/18 10:44:28;;;;;;;6.72;0.50;;;18.60;99.90;;;;;;4974698;28;20039;-66
2023/05/18 10:46:54;;;;;;;5.00;0.60;;;18.80;99.90;;;;;;4958743;28;20035;-66
2023/05/18 10:49:25;;;;;;;5.22;0.50;;;18.30;99.90;;;;;;4989233;28;20047;-66
2023/05/18 10:51:56;;;;;;;4.47;0.60;;;18.40;99.90;;;;;;4972321;28;20673;-67
2023/05/18 10:54:22;;;;;;;6.32;0.57;;;19.00;99.90;;;;;;4988453;28;20728;-67
2023/05/18 10:56:51;;;;;;;5.38;0.60;;;18.90;99.90;;;;;;4978947;28;20057;-66
2023/05/18 10:59:18;;;;;;;5.13;0.65;;;19.20;99.90;;;;;;4988766;28;20053;-67
2023/05/18 11:01:45;;;;;;;6.40;0.60;;;19.00;99.90;;;;;;4993617;28;20260;-67
2023/05/18 11:04:11;;;;;;;8.00;1.00;;;19.10;99.90;;;;;;4988947;28;20162;-67
2023/05/18 11:06:38;;;;;;;3.25;0.47;;;19.60;99.90;;;;;;4962738;28;20049;-67
2023/05/18 11:09:04;;;;;;;5.07;0.50;;;19.60;99.90;;;;;;4995439;28;20078;-66
2023/05/18 11:11:54;;;;;;;5.15;0.75;;;19.80;99.90;;;;;;4962931;28;20078;-66
2023/05/18 11:14:29;;;;;;;5.90;0.52;;;19.50;99.90;;;;;;4978080;28;20680;-66
2023/05/18 11:17:17;;;;;;;7.03;0.70;;;19.50;99.90;;;;;;4970877;28;20054;-66
2023/05/18 11:20:05;;;;;;;4.03;0.57;;;19.70;99.90;;;;;;4943818;28;20184;-67
2023/05/18 11:22:56;;;;;;;5.47;0.93;;;19.70;99.90;;;;;;4991397;28;20047;-67
2023/05/18 11:25:25;;;;;;;5.55;0.65;;;19.30;99.90;;;;;;4970559;28;20051;-66
2023/05/18 11:28:04;;;;;;;5.53;0.70;;;19.40;99.90;;;;;;4970580;28;20124;-67
2023/05/18 11:30:32;;;;;;;6.18;0.80;;;19.70;99.90;;;;;;4971440;28;20049;-66
2023/05/18 11:33:19;;;;;;;4.60;0.60;;;19.40;99.90;;;;;;4953529;28;20038;-67
2023/05/18 11:36:08;;;;;;;7.53;0.70;;;19.20;99.90;;;;;;4954599;28;20054;-66
2023/05/18 11:39:01;;;;;;;6.40;0.95;;;19.00;99.90;;;;;;4972519;28;20042;-67
2023/05/18 11:41:28;;;;;;;8.38;1.00;;;18.70;99.90;;;;;;4986299;28;20045;-67
2023/05/18 11:44:19;;;;;;;5.18;0.60;;;18.70;99.90;;;;;;4969781;28;20065;-67
2023/05/18 11:46:55;;;;;;;5.68;0.73;;;18.80;99.90;;;;;;4966739;28;20085;-68
2023/05/18 11:49:29;;;;;;;7.40;0.65;;;19.00;99.90;;;;;;4970438;28;21335;-67
2023/05/18 11:52:17;;;;;;;5.82;0.73;;;19.30;99.90;;;;;;4968459;28;20093;-67
2023/05/18 11:54:48;;;;;;;6.47;0.75;;;19.10;99.90;;;;;;4968263;28;20066;-68
2023/05/18 11:57:16;;;;;;;6.05;0.60;;;19.50;99.90;;;;;;4988239;28;20108;-68
2023/05/18 11:59:47;;;;;;;6.68;1.05;;;20.00;99.90;;;;;;4968035;28;20286;-68
2023/05/18 12:02:39;;;;;;;7.07;0.63;;;20.40;99.90;;;;;;4971830;28;20234;-67
2023/05/18 12:05:08;;;;;;;4.97;0.60;;;19.60;99.90;;;;;;4957333;28;20047;-67
2023/05/18 12:07:35;;;;;;;5.80;0.80;;;19.80;99.90;;;;;;4955128;28;20627;-66
2023/05/18 12:10:09;;;;;;;6.93;0.70;;;19.30;99.90;;;;;;4934363;28;20080;-67
2023/05/18 12:12:35;;;;;;;5.40;0.80;;;19.40;99.90;;;;;;4954360;28;20109;-67
2023/05/18 12:15:09;;;;;;;5.50;1.08;;;19.70;99.90;;;;;;4943368;28;20046;-67
2023/05/18 12:17:41;;;;;;;4.55;0.52;;;19.80;99.90;;;;;;4971867;28;20666;-67
2023/05/18 12:20:15;;;;;;;6.88;0.70;;;19.80;99.90;;;;;;4941652;28;20081;-66
2023/05/18 12:22:43;;;;;;;5.03;0.50;;;19.90;99.90;;;;;;4954643;28;20484;-67
2023/05/18 12:25:10;;;;;;;3.65;0.55;;;20.20;99.90;;;;;;4988582;28;20591;-67
2023/05/18 12:27:46;;;;;;;5.85;0.85;;;20.10;99.90;;;;;;4959570;28;20468;-66
2023/05/18 12:30:21;;;;;;;5.18;0.57;;;20.00;99.90;;;;;;4957512;28;20049;-67
2023/05/18 12:32:56;;;;;;;8.15;0.77;;;20.10;99.90;;;;;;4957549;28;20039;-68
2023/05/18 12:35:28;;;;;;;4.15;0.70;;;20.10;99.90;;;;;;4945499;28;20062;-67
2023/05/18 12:38:00;;;;;;;8.27;0.80;;;20.00;99.90;;;;;;4972237;28;20054;-67
2023/05/18 12:40:47;;;;;;;6.00;0.60;;;20.40;99.90;;;;;;4988424;28;20042;-67
2023/05/18 12:43:16;;;;;;;6.70;0.85;;;19.70;99.90;;;;;;4953971;28;20039;-66
2023/05/18 12:45:44;;;;;;;8.70;0.80;;;19.60;99.90;;;;;;4970833;28;20039;-68
2023/05/18 12:48:11;;;;;;;6.55;0.95;;;19.60;99.90;;;;;;4962228;28;20039;-68
2023/05/18 12:50:49;;;;;;;5.47;0.68;;;20.10;99.90;;;;;;4946305;28;20302;-68
2023/05/18 12:53:16;;;;;;;7.15;0.80;;;20.20;99.90;;;;;;4940683;28;20046;-67
2023/05/18 12:55:44;;;;;;;5.95;0.75;;;19.80;99.90;;;;;;4941440;28;20050;-69
2023/05/18 12:58:16;;;;;;;9.52;0.70;;;19.40;99.90;;;;;;4941487;28;20046;-68
2023/05/18 13:00:44;;;;;;;7.15;0.77;;;19.50;99.90;;;;;;4957470;28;20177;-67